Time;durP1;ratioP1;P1;durP2;ratioP2;P2;SDS_P1;SDS_P2;PMS_P1;PMS_P2;Temp;Humidity;BMP_temperature;BMP_pressure;BME280_temperature;BME280_humidity;BME280_pressure;Samples;Min_cycle;Max_cycle;Signal;HPM_P1;HPM_P2
2024/01/27 00:01:15;;;;;;;13.40;8.80;;;;;;;-0.99;100.00;101253.58;110075;1239;61397;-70
2024/01/27 00:03:45;;;;;;;16.00;8.00;;;;;;;-0.98;100.00;101254.77;110051;1237;60578;-71
2024/01/27 00:06:14;;;;;;;15.80;8.90;;;;;;;-0.99;100.00;101253.42;110072;1239;74358;-70
2024/01/27 00:08:42;;;;;;;16.20;9.40;;;;;;;-0.97;100.00;101246.88;110045;1237;72501;-68
2024/01/27 00:11:12;;;;;;;19.10;9.10;;;;;;;-0.93;100.00;101245.45;110071;1236;71432;-68
2024/01/27 00:13:40;;;;;;;14.60;8.10;;;;;;;-0.94;100.00;101245.12;110025;1237;74053;-69
2024/01/27 00:16:09;;;;;;;14.80;9.10;;;;;;;-0.98;100.00;101233.05;110025;1237;60137;-70
2024/01/27 00:18:38;;;;;;;14.30;8.50;;;;;;;-0.92;100.00;101241.83;110093;1238;58804;-69
2024/01/27 00:21:08;;;;;;;15.90;8.70;;;;;;;-0.93;100.00;101237.06;109975;1237;74329;-69
2024/01/27 00:23:37;;;;;;;15.80;9.60;;;;;;;-0.93;100.00;101239.12;109985;1239;71643;-69
2024/01/27 00:26:05;;;;;;;14.20;8.50;;;;;;;-0.89;100.00;101244.88;109982;1238;71260;-69
2024/01/27 00:28:34;;;;;;;13.60;8.40;;;;;;;-0.89;100.00;101250.02;109968;1237;73596;-69
2024/01/27 00:31:03;;;;;;;15.80;8.30;;;;;;;-0.88;100.00;101243.48;109961;1239;60228;-70
2024/01/27 00:33:32;;;;;;;14.20;8.90;;;;;;;-0.90;100.00;101250.70;110079;1237;59509;-69
2024/01/27 00:36:01;;;;;;;13.30;8.40;;;;;;;-0.92;100.00;101247.48;110062;1237;72873;-68
2024/01/27 00:38:30;;;;;;;15.30;8.70;;;;;;;-0.90;100.00;101241.48;109951;1237;70269;-68
2024/01/27 00:40:59;;;;;;;15.60;9.30;;;;;;;-0.91;100.00;101245.76;109928;1239;70476;-68
2024/01/27 00:43:27;;;;;;;15.20;8.90;;;;;;;-0.89;100.00;101245.21;109856;1237;74081;-69
2024/01/27 00:45:56;;;;;;;16.70;8.80;;;;;;;-0.86;100.00;101246.35;109887;1237;60863;-70
2024/01/27 00:48:25;;;;;;;16.80;8.80;;;;;;;-0.83;100.00;101247.16;109798;1237;60282;-69
2024/01/27 00:50:54;;;;;;;13.90;8.60;;;;;;;-0.81;100.00;101246.61;109887;1237;74221;-69
2024/01/27 00:53:22;;;;;;;18.10;9.80;;;;;;;-0.81;100.00;101241.13;109858;1237;72680;-69
2024/01/27 00:55:51;;;;;;;16.70;9.10;;;;;;;-0.81;100.00;101240.80;109868;1237;68474;-70
2024/01/27 00:58:20;;;;;;;15.80;8.10;;;;;;;-0.80;100.00;101243.86;109946;1237;71850;-69
2024/01/27 01:00:49;;;;;;;15.00;8.90;;;;;;;-0.83;100.00;101238.44;110002;1237;61229;-70
2024/01/27 01:03:18;;;;;;;15.00;9.10;;;;;;;-0.84;100.00;101235.04;110016;1237;60567;-69
2024/01/27 01:05:47;;;;;;;16.80;9.60;;;;;;;-0.86;100.00;101235.41;110026;1239;73423;-69
2024/01/27 01:08:16;;;;;;;14.70;8.90;;;;;;;-0.95;100.00;101222.23;110036;1237;70271;-69
2024/01/27 01:10:45;;;;;;;15.80;9.40;;;;;;;-0.89;100.00;101235.81;109721;1237;68804;-69
2024/01/27 01:13:14;;;;;;;16.50;8.90;;;;;;;-0.87;100.00;101233.20;109774;1237;71967;-69
2024/01/27 01:15:43;;;;;;;15.60;10.10;;;;;;;-0.82;100.00;101231.41;109867;1239;61298;-70
2024/01/27 01:18:12;;;;;;;15.20;9.90;;;;;;;-0.80;100.00;101227.63;109885;1239;61284;-70
2024/01/27 01:20:41;;;;;;;14.90;9.40;;;;;;;-0.78;100.00;101219.20;109890;1238;74722;-70
2024/01/27 01:23:10;;;;;;;18.40;8.90;;;;;;;-0.74;100.00;101214.86;109840;1238;72364;-70
2024/01/27 01:25:38;;;;;;;16.00;9.80;;;;;;;-0.75;100.00;101214.53;109888;1237;70831;-69
2024/01/27 01:28:07;;;;;;;18.80;9.60;;;;;;;-0.70;100.00;101216.49;109846;1237;70929;-69
2024/01/27 01:30:36;;;;;;;16.60;9.70;;;;;;;-0.61;100.00;101213.60;109770;1237;59013;-69
2024/01/27 01:33:05;;;;;;;15.50;9.10;;;;;;;-0.59;100.00;101209.45;109884;1237;58240;-70
2024/01/27 01:35:35;;;;;;;16.10;9.30;;;;;;;-0.68;100.00;101203.97;109936;1239;71875;-69
2024/01/27 01:38:04;;;;;;;18.50;10.10;;;;;;;-0.77;100.00;101188.23;109997;1237;71534;-70
2024/01/27 01:40:33;;;;;;;15.60;9.20;;;;;;;-0.69;100.00;101202.11;110023;1237;70229;-70
2024/01/27 01:43:04;;;;;;;17.00;10.30;;;;;;;-0.65;100.00;101202.02;109987;1237;74291;-69
2024/01/27 01:45:32;;;;;;;17.60;9.30;;;;;;;-0.63;100.00;101198.41;109986;1239;62496;-69
2024/01/27 01:48:01;;;;;;;18.00;9.40;;;;;;;-0.64;100.00;101192.09;109809;1237;60828;-69
2024/01/27 01:50:31;;;;;;;19.40;11.40;;;;;;;-0.72;100.00;101186.44;109924;1237;75054;-69
2024/01/27 01:53:01;;;;;;;19.50;11.20;;;;;;;-0.75;100.00;101185.80;110007;1237;70028;-69
2024/01/27 01:55:29;;;;;;;16.80;10.00;;;;;;;-0.75;100.00;101187.52;109836;1237;68625;-69
2024/01/27 01:57:58;;;;;;;15.60;9.20;;;;;;;-0.75;100.00;101181.52;109800;1237;71836;-70
2024/01/27 02:00:27;;;;;;;18.20;10.20;;;;;;;-0.82;100.00;101181.46;109784;1239;61068;-71
2024/01/27 02:02:56;;;;;;;19.00;10.80;;;;;;;-0.89;100.00;101176.29;109812;1239;58468;-71
2024/01/27 02:05:25;;;;;;;18.30;11.20;;;;;;;-0.88;100.00;101172.34;109815;1238;72340;-69
2024/01/27 02:07:56;;;;;;;17.90;10.30;;;;;;;-0.92;100.00;101178.56;109712;1237;72194;-70
2024/01/27 02:10:25;;;;;;;20.40;11.30;;;;;;;-0.84;100.00;101177.76;109702;1237;70808;-69
2024/01/27 02:12:53;;;;;;;17.90;10.00;;;;;;;-0.82;100.00;101183.17;109792;1237;73925;-70
2024/01/27 02:15:22;;;;;;;15.90;9.60;;;;;;;-0.83;100.00;101181.66;109703;1240;59975;-70
2024/01/27 02:17:51;;;;;;;13.50;7.90;;;;;;;-0.78;100.00;101180.54;109857;1237;59606;-72
2024/01/27 02:20:20;;;;;;;17.80;8.30;;;;;;;-0.79;100.00;101176.81;109759;1240;72441;-69
2024/01/27 02:22:49;;;;;;;19.90;9.80;;;;;;;-0.94;100.00;101176.04;109859;1237;71407;-69
2024/01/27 02:25:18;;;;;;;16.70;9.30;;;;;;;-1.04;100.00;101174.86;109795;1237;71836;-70
2024/01/27 02:27:46;;;;;;;17.20;9.40;;;;;;;-1.12;100.00;101171.56;109760;1237;73087;-69
2024/01/27 02:30:15;;;;;;;17.10;9.70;;;;;;;-1.21;100.00;101168.46;109755;1238;60085;-69
2024/01/27 02:32:44;;;;;;;16.70;9.50;;;;;;;-1.20;100.00;101169.98;109841;1239;60152;-69
2024/01/27 02:35:14;;;;;;;16.70;10.20;;;;;;;-1.27;100.00;101169.23;109868;1239;72577;-69
2024/01/27 02:37:42;;;;;;;20.10;10.50;;;;;;;-1.33;100.00;101167.98;110016;1237;72444;-68
2024/01/27 02:40:11;;;;;;;17.50;9.90;;;;;;;-1.30;100.00;101164.69;109976;1237;69155;-69
2024/01/27 02:42:42;;;;;;;17.80;9.50;;;;;;;-1.27;100.00;101153.85;110036;1237;71055;-68
2024/01/27 02:45:14;;;;;;;14.60;8.70;;;;;;;-1.16;100.00;101154.20;109864;1241;62079;-69
2024/01/27 02:47:43;;;;;;;16.90;8.80;;;;;;;-1.11;100.00;101156.86;109958;1237;61449;-69
2024/01/27 02:50:12;;;;;;;17.80;10.10;;;;;;;-1.14;100.00;101159.80;110058;1237;73353;-69
2024/01/27 02:52:41;;;;;;;17.80;10.00;;;;;;;-1.12;100.00;101158.73;109791;1237;70782;-69
2024/01/27 02:55:10;;;;;;;17.30;10.40;;;;;;;-1.05;100.00;101156.58;110001;1237;70597;-68
2024/01/27 02:57:41;;;;;;;17.60;10.60;;;;;;;-1.01;100.00;101155.14;109931;1237;74085;-69
2024/01/27 03:00:10;;;;;;;18.10;10.00;;;;;;;-1.00;100.00;101152.39;109947;1240;62346;-70
2024/01/27 03:02:39;;;;;;;16.20;10.20;;;;;;;-0.96;100.00;101148.71;110027;1238;59926;-70
2024/01/27 03:05:08;;;;;;;21.50;11.50;;;;;;;-0.92;100.00;101141.99;110063;1237;72533;-69
2024/01/27 03:07:37;;;;;;;19.10;11.00;;;;;;;-0.95;100.00;101139.48;110056;1237;71764;-70
2024/01/27 03:10:06;;;;;;;16.30;9.80;;;;;;;-0.91;100.00;101133.58;110057;1237;69873;-69
2024/01/27 03:12:35;;;;;;;20.20;11.10;;;;;;;-0.90;100.00;101131.17;109953;1237;71607;-70
2024/01/27 03:15:05;;;;;;;16.90;9.80;;;;;;;-0.75;100.00;101127.30;110043;1239;60301;-70
2024/01/27 03:17:34;;;;;;;16.70;10.40;;;;;;;-0.71;100.00;101120.56;110068;1237;60841;-70
2024/01/27 03:20:03;;;;;;;18.70;10.30;;;;;;;-0.68;100.00;101121.70;110047;1237;74805;-69
2024/01/27 03:22:32;;;;;;;18.40;11.20;;;;;;;-0.67;100.00;101124.23;109979;1239;72574;-69
2024/01/27 03:25:00;;;;;;;18.90;12.10;;;;;;;-0.66;100.00;101127.30;110081;1237;69898;-69
2024/01/27 03:27:29;;;;;;;21.90;11.90;;;;;;;-0.62;100.00;101127.73;110037;1237;72857;-71
2024/01/27 03:30:01;;;;;;;18.00;10.30;;;;;;;-0.69;100.00;101118.46;110031;1239;60271;-70
2024/01/27 03:32:33;;;;;;;16.80;10.00;;;;;;;-0.75;100.00;101114.30;109871;1237;60427;-70
2024/01/27 03:35:02;;;;;;;16.10;9.70;;;;;;;-0.72;100.00;101107.90;110093;1238;73553;-70
2024/01/27 03:37:31;;;;;;;20.70;12.10;;;;;;;-0.78;100.00;101105.46;110005;1237;71345;-70
2024/01/27 03:40:01;;;;;;;21.40;11.90;;;;;;;-0.84;100.00;101105.56;109978;1240;68620;-71
2024/01/27 03:42:30;;;;;;;21.40;11.20;;;;;;;-0.86;100.00;101099.30;110090;1239;73799;-70
2024/01/27 03:44:58;;;;;;;16.30;10.50;;;;;;;-0.97;100.00;101101.72;110083;1239;61853;-69
2024/01/27 03:47:27;;;;;;;17.30;11.10;;;;;;;-0.99;100.00;101097.98;110116;1237;62064;-69
2024/01/27 03:49:56;;;;;;;18.30;10.70;;;;;;;-0.98;100.00;101094.89;110092;1239;74070;-70
2024/01/27 03:52:25;;;;;;;19.00;10.80;;;;;;;-0.97;100.00;101087.86;110137;1239;70296;-69
2024/01/27 03:54:54;;;;;;;19.60;12.30;;;;;;;-1.11;100.00;101074.79;110039;1240;67853;-69
2024/01/27 03:57:23;;;;;;;21.30;12.60;;;;;;;-1.10;100.00;101086.21;110061;1237;73983;-69
2024/01/27 03:59:52;;;;;;;29.60;14.90;;;;;;;-1.14;100.00;101088.84;110048;1237;62157;-70
2024/01/27 04:02:20;;;;;;;27.80;15.40;;;;;;;-1.14;100.00;101089.88;110087;1237;62520;-70
2024/01/27 04:04:49;;;;;;;21.80;11.80;;;;;;;-1.16;100.00;101090.28;110118;1239;74757;-69
2024/01/27 04:07:18;;;;;;;18.50;9.50;;;;;;;-1.18;100.00;101090.65;110080;1239;71180;-70
2024/01/27 04:09:47;;;;;;;17.70;10.60;;;;;;;-1.25;100.00;101088.56;110053;1239;67729;-69
2024/01/27 04:12:16;;;;;;;19.70;10.80;;;;;;;-1.31;100.00;101088.48;110063;1237;71908;-70
2024/01/27 04:14:45;;;;;;;20.10;11.90;;;;;;;-1.35;100.00;101090.27;110107;1239;60258;-69
2024/01/27 04:17:14;;;;;;;19.70;12.20;;;;;;;-1.34;100.00;101088.88;110088;1238;60362;-70
2024/01/27 04:19:42;;;;;;;21.40;11.90;;;;;;;-1.34;100.00;101090.59;110063;1237;74906;-69
2024/01/27 04:22:12;;;;;;;21.20;12.60;;;;;;;-1.38;100.00;101089.96;109993;1237;72566;-70
2024/01/27 04:24:41;;;;;;;21.00;12.20;;;;;;;-1.39;100.00;101094.08;109984;1239;70577;-71
2024/01/27 04:27:09;;;;;;;20.90;11.80;;;;;;;-1.36;100.00;101095.41;110097;1237;73422;-69
2024/01/27 04:29:38;;;;;;;20.40;12.40;;;;;;;-1.36;100.00;101100.02;110149;1239;61157;-68
2024/01/27 04:32:07;;;;;;;20.40;11.40;;;;;;;-1.37;100.00;101109.25;110146;1238;58591;-69
2024/01/27 04:34:36;;;;;;;21.30;12.50;;;;;;;-1.38;100.00;101112.00;110108;1237;71573;-70
2024/01/27 04:37:05;;;;;;;21.40;13.30;;;;;;;-1.44;100.00;101113.64;110049;1237;72172;-70
2024/01/27 04:39:34;;;;;;;23.40;14.10;;;;;;;-1.47;100.00;101110.79;110101;1239;68196;-69
2024/01/27 04:42:06;;;;;;;22.70;13.20;;;;;;;-1.49;100.00;101112.69;109963;1241;71118;-71
2024/01/27 04:44:35;;;;;;;21.60;13.00;;;;;;;-1.53;100.00;101115.50;110041;1240;59511;-70
2024/01/27 04:47:04;;;;;;;22.50;12.20;;;;;;;-1.49;100.00;101117.84;110047;1241;59453;-70
2024/01/27 04:49:32;;;;;;;22.60;12.30;;;;;;;-1.51;100.00;101116.00;110009;1237;73609;-70
2024/01/27 04:52:01;;;;;;;22.20;12.80;;;;;;;-1.50;100.00;101109.15;110116;1238;72531;-69
2024/01/27 04:54:30;;;;;;;22.80;13.30;;;;;;;-1.51;100.00;101109.14;110103;1239;68266;-70
2024/01/27 04:56:59;;;;;;;24.90;14.10;;;;;;;-1.50;100.00;101106.40;110065;1239;72016;-70
2024/01/27 04:59:28;;;;;;;22.20;12.90;;;;;;;-1.51;100.00;101107.79;110094;1239;59634;-69
2024/01/27 05:01:56;;;;;;;21.50;13.60;;;;;;;-1.51;100.00;101105.04;110030;1237;61720;-70
2024/01/27 05:04:26;;;;;;;19.40;12.10;;;;;;;-1.50;100.00;101109.31;109998;1241;72428;-71
2024/01/27 05:06:55;;;;;;;29.40;17.70;;;;;;;-1.52;100.00;101110.38;109966;1241;69366;-71
2024/01/27 05:09:25;;;;;;;20.30;13.10;;;;;;;-1.54;100.00;101114.65;110025;1238;67829;-75
2024/01/27 05:11:53;;;;;;;20.20;12.90;;;;;;;-1.56;100.00;101111.63;110085;1239;73760;-75
2024/01/27 05:14:22;;;;;;;20.20;12.80;;;;;;;-1.58;100.00;101108.91;109613;1242;62398;-68
2024/01/27 05:16:51;;;;;;;19.20;12.20;;;;;;;-1.57;100.00;101116.41;109870;1239;59213;-69
2024/01/27 05:19:21;;;;;;;21.80;12.50;;;;;;;-1.57;100.00;101118.81;109914;1237;73621;-68
2024/01/27 05:21:50;;;;;;;18.60;10.90;;;;;;;-1.61;100.00;101122.13;109822;1240;71271;-69
2024/01/27 05:24:19;;;;;;;19.60;11.60;;;;;;;-1.64;100.00;101119.42;109862;1241;67836;-69
2024/01/27 05:26:48;;;;;;;20.90;11.00;;;;;;;-1.59;100.00;101116.45;109800;1241;72445;-69
2024/01/27 05:29:17;;;;;;;24.30;12.50;;;;;;;-1.54;100.00;101115.02;109796;1240;60830;-72
2024/01/27 05:31:46;;;;;;;20.70;12.40;;;;;;;-1.54;100.00;101120.13;109762;1237;61426;-68
2024/01/27 05:34:14;;;;;;;21.90;12.70;;;;;;;-1.50;100.00;101123.31;109877;1241;74786;-73
2024/01/27 05:36:44;;;;;;;20.40;12.70;;;;;;;-1.45;100.00;101120.14;109837;1237;72698;-73
2024/01/27 05:39:14;;;;;;;24.70;13.10;;;;;;;-1.43;100.00;101115.00;109760;1237;70051;-73
2024/01/27 05:41:42;;;;;;;20.80;12.80;;;;;;;-1.33;100.00;101116.88;109830;1239;73377;-73
2024/01/27 05:44:11;;;;;;;22.10;12.40;;;;;;;-1.29;100.00;101113.91;109854;1239;60747;-72
2024/01/27 05:46:40;;;;;;;26.60;13.60;;;;;;;-1.25;100.00;101116.75;109914;1237;59976;-73
2024/01/27 05:49:09;;;;;;;22.80;12.30;;;;;;;-1.14;100.00;101129.55;109803;1237;74289;-72
2024/01/27 05:51:38;;;;;;;18.80;12.30;;;;;;;-1.08;100.00;101134.73;109793;1240;72066;-72
2024/01/27 05:54:08;;;;;;;24.60;13.80;;;;;;;-1.04;100.00;101135.36;109973;1237;70936;-72
2024/01/27 05:56:38;;;;;;;24.00;13.90;;;;;;;-1.04;100.00;101140.81;109914;1241;73219;-72
2024/01/27 05:59:07;;;;;;;26.10;15.00;;;;;;;-1.03;100.00;101144.73;109863;1241;62622;-72
2024/01/27 06:01:36;;;;;;;32.00;16.30;;;;;;;-0.98;100.00;101149.27;110037;1240;61492;-72
2024/01/27 06:04:04;;;;;;;28.00;16.50;;;;;;;-0.96;100.00;101149.40;109755;1237;74254;-72
2024/01/27 06:06:33;;;;;;;30.50;16.00;;;;;;;-0.93;100.00;101147.63;109987;1237;72159;-73
2024/01/27 06:09:03;;;;;;;27.00;15.00;;;;;;;-0.92;100.00;101147.96;110008;1239;68645;-75
2024/01/27 06:11:32;;;;;;;28.20;15.60;;;;;;;-0.89;100.00;101150.30;109941;1240;73703;-73
2024/01/27 06:14:01;;;;;;;27.40;15.80;;;;;;;-0.84;100.00;101156.02;109948;1239;60199;-72
2024/01/27 06:16:30;;;;;;;31.20;15.90;;;;;;;-0.82;100.00;101156.84;109829;1241;59507;-72
2024/01/27 06:19:00;;;;;;;28.80;14.90;;;;;;;-0.74;100.00;101159.42;109921;1240;73754;-73
2024/01/27 06:21:30;;;;;;;34.60;18.50;;;;;;;-0.63;100.00;101159.22;109926;1238;71883;-74
2024/01/27 06:23:59;;;;;;;26.80;15.00;;;;;;;-0.67;100.00;101160.83;109957;1240;70810;-73
2024/01/27 06:26:28;;;;;;;25.60;15.10;;;;;;;-0.61;100.00;101163.30;109966;1242;74309;-72
2024/01/27 06:28:57;;;;;;;22.40;14.10;;;;;;;-0.63;100.00;101161.46;109905;1240;60995;-73
2024/01/27 06:31:26;;;;;;;24.80;14.20;;;;;;;-0.69;100.00;101164.64;109927;1239;58169;-72
2024/01/27 06:33:55;;;;;;;26.40;13.10;;;;;;;-0.75;100.00;101169.20;109939;1240;73562;-72
2024/01/27 06:36:25;;;;;;;24.50;13.40;;;;;;;-0.86;100.00;101168.38;109938;1239;72588;-73
2024/01/27 06:38:54;;;;;;;36.90;19.10;;;;;;;-0.95;100.00;101171.10;109936;1238;68186;-73
2024/01/27 06:41:23;;;;;;;27.70;15.10;;;;;;;-1.01;100.00;101172.59;109916;1241;71782;-72
2024/01/27 06:43:52;;;;;;;26.10;15.30;;;;;;;-1.01;100.00;101172.41;109909;1240;60592;-74
2024/01/27 06:46:21;;;;;;;29.10;16.30;;;;;;;-0.99;100.00;101175.77;109563;1243;61178;-73
2024/01/27 06:48:49;;;;;;;31.00;16.20;;;;;;;-0.98;100.00;101183.64;109796;1238;74015;-73
2024/01/27 06:51:19;;;;;;;29.20;15.90;;;;;;;-0.98;100.00;101182.10;109853;1238;195476;-72
2024/01/27 06:53:48;;;;;;;30.90;16.20;;;;;;;-0.92;100.00;101183.88;110034;1237;72087;-73
2024/01/27 06:56:17;;;;;;;28.90;15.50;;;;;;;-0.76;100.00;101185.99;109885;1237;70624;-73
2024/01/27 06:58:46;;;;;;;29.60;15.70;;;;;;;-0.66;100.00;101185.80;110019;1239;59578;-72
2024/01/27 07:01:15;;;;;;;29.00;15.80;;;;;;;-0.57;100.00;101187.35;110001;1237;58712;-73
2024/01/27 07:03:44;;;;;;;29.00;14.90;;;;;;;-0.47;100.00;101183.21;109933;1237;71612;-73
2024/01/27 07:06:13;;;;;;;27.00;14.30;;;;;;;-0.42;100.00;101190.13;109872;1238;70310;-72
2024/01/27 07:08:42;;;;;;;23.20;13.50;;;;;;;-0.20;100.00;101193.65;109903;1237;68677;-72
2024/01/27 07:11:12;;;;;;;22.80;12.40;;;;;;;-0.04;100.00;101194.35;109840;1239;72034;-74
2024/01/27 07:13:41;;;;;;;22.40;12.80;;;;;;;0.05;100.00;101195.52;109738;1238;62268;-74
2024/01/27 07:16:10;;;;;;;24.30;12.30;;;;;;;0.14;100.00;101191.04;109738;1238;59079;-72
2024/01/27 07:18:39;;;;;;;27.40;13.00;;;;;;;0.18;100.00;101194.56;109850;1237;71612;-73
2024/01/27 07:21:08;;;;;;;23.20;13.00;;;;;;;0.08;100.00;101195.63;109904;1238;70093;-73
2024/01/27 07:23:37;;;;;;;20.70;13.30;;;;;;;0.10;100.00;101194.03;109853;1238;67881;-73
2024/01/27 07:26:09;;;;;;;20.00;11.30;;;;;;;0.02;100.00;101193.70;109876;1241;73316;-75
2024/01/27 07:28:40;;;;;;;19.40;12.10;;;;;;;0.23;100.00;101193.59;109937;1238;60063;-74
2024/01/27 07:31:11;;;;;;;17.00;10.10;;;;;;;0.18;100.00;101194.20;109826;1237;61284;-73
2024/01/27 07:33:40;;;;;;;20.50;12.10;;;;;;;0.21;100.00;101192.27;109902;1239;73949;-74
2024/01/27 07:36:09;;;;;;;21.20;12.10;;;;;;;0.13;100.00;101185.42;109836;1238;71846;-74
2024/01/27 07:38:37;;;;;;;21.20;12.10;;;;;;;0.18;100.00;101184.29;109986;1238;71207;-73
2024/01/27 07:41:06;;;;;;;24.00;13.70;;;;;;;0.21;100.00;101183.87;109915;1238;73241;-75
2024/01/27 07:43:35;;;;;;;22.50;12.70;;;;;;;0.04;100.00;101180.66;109959;1239;61112;-74
2024/01/27 07:46:04;;;;;;;23.50;13.50;;;;;;;0.17;100.00;101180.35;109909;1238;58670;-72
2024/01/27 07:48:33;;;;;;;27.30;14.00;;;;;;;0.26;100.00;101185.48;109713;1238;72465;-74
2024/01/27 07:51:02;;;;;;;26.00;14.40;;;;;;;0.27;100.00;101187.51;109796;1237;70182;-73
2024/01/27 07:53:31;;;;;;;21.20;12.70;;;;;;;0.41;100.00;101189.59;109832;1238;69088;-74
2024/01/27 07:56:00;;;;;;;24.80;14.30;;;;;;;0.56;100.00;101193.19;109821;1239;70146;-72
2024/01/27 07:58:30;;;;;;;24.90;14.20;;;;;;;0.45;100.00;101190.54;109781;1239;61167;-73
2024/01/27 08:01:00;;;;;;;25.20;14.60;;;;;;;0.43;100.00;101193.49;109832;1239;59653;-74
2024/01/27 08:03:28;;;;;;;23.10;13.70;;;;;;;0.48;100.00;101192.85;109712;1237;72551;-72
2024/01/27 08:05:58;;;;;;;30.70;16.20;;;;;;;0.45;100.00;101192.74;109850;1237;70716;-74
2024/01/27 08:08:27;;;;;;;22.30;12.40;;;;;;;0.34;100.00;101193.52;109668;1239;71607;-73
2024/01/27 08:10:55;;;;;;;26.40;15.00;;;;;;;0.47;100.00;101194.58;109622;1241;74235;-69
2024/01/27 08:13:24;;;;;;;31.60;16.00;;;;;;;0.39;100.00;101195.63;109745;1238;60789;-72
2024/01/27 08:15:53;;;;;;;27.80;14.40;;;;;;;0.27;100.00;101193.34;109779;1238;58318;-73
2024/01/27 08:18:22;;;;;;;27.40;14.10;;;;;;;0.40;100.00;101195.27;109767;1240;73418;-72
2024/01/27 08:20:51;;;;;;;35.00;17.70;;;;;;;0.30;100.00;101192.23;109550;1238;71288;-73
2024/01/27 08:23:19;;;;;;;34.80;17.80;;;;;;;0.19;100.00;101188.88;109523;1238;70162;-74
2024/01/27 08:25:52;;;;;;;33.40;17.50;;;;;;;0.35;100.00;101191.27;109637;1238;71535;-72
2024/01/27 08:28:20;;;;;;;29.20;17.30;;;;;;;0.36;100.00;101188.67;109719;1241;61264;-73
2024/01/27 08:30:49;;;;;;;32.30;18.10;;;;;;;0.44;100.00;101187.29;109760;1240;60092;-73
2024/01/27 08:33:18;;;;;;;33.10;17.80;;;;;;;0.59;100.00;101190.21;109830;1238;72441;-73
2024/01/27 08:35:48;;;;;;;29.00;18.00;;;;;;;0.56;100.00;101190.79;109585;1238;72244;-72
2024/01/27 08:38:16;;;;;;;28.00;17.20;;;;;;;0.62;100.00;101191.16;109809;1237;70969;-73
2024/01/27 08:40:45;;;;;;;30.80;17.70;;;;;;;0.60;100.00;101194.63;109814;1238;71524;-75
2024/01/27 08:43:14;;;;;;;29.00;16.70;;;;;;;0.79;100.00;101192.13;109789;1239;59983;-74
2024/01/27 08:45:43;;;;;;;33.00;18.90;;;;;;;0.95;100.00;101187.63;109886;1237;60510;-75
2024/01/27 08:48:12;;;;;;;30.50;18.70;;;;;;;0.87;100.00;101194.35;109837;1238;74972;-73
2024/01/27 08:50:41;;;;;;;29.40;18.00;;;;;;;1.14;100.00;101195.73;109846;1237;70633;-73
2024/01/27 08:53:10;;;;;;;30.00;16.30;;;;;;;1.05;100.00;101192.52;109815;1236;69159;-76
2024/01/27 08:55:39;;;;;;;28.80;16.80;;;;;;;1.01;100.00;101193.14;109731;1239;72523;-73
2024/01/27 08:58:08;;;;;;;29.60;17.00;;;;;;;1.06;100.00;101191.81;109782;1239;62021;-80
2024/01/27 09:00:36;;;;;;;29.60;17.60;;;;;;;1.05;100.00;101183.42;109835;1238;60590;-83
2024/01/27 09:03:05;;;;;;;27.80;16.70;;;;;;;0.83;100.00;101187.06;109879;1237;74138;-85
2024/01/27 09:05:34;;;;;;;30.50;17.20;;;;;;;0.95;100.00;101199.30;109817;1238;73010;-82
2024/01/27 09:08:04;;;;;;;31.10;18.00;;;;;;;1.08;100.00;101200.34;109920;1237;68223;-83
2024/01/27 09:10:32;;;;;;;31.00;17.60;;;;;;;1.06;100.00;101200.20;109722;1241;73775;-83
2024/01/27 09:13:01;;;;;;;33.00;19.20;;;;;;;1.01;100.00;101196.73;109685;1241;60485;-80
2024/01/27 09:15:31;;;;;;;33.00;18.50;;;;;;;1.07;100.00;101194.20;109641;1237;60454;-79
2024/01/27 09:18:00;;;;;;;30.90;18.80;;;;;;;1.21;100.00;101196.39;109591;1238;73518;-78
2024/01/27 09:20:29;;;;;;;31.00;19.50;;;;;;;1.25;100.00;101198.69;109705;1239;69551;-74
2024/01/27 09:22:58;;;;;;;32.10;18.90;;;;;;;1.23;100.00;101201.66;109773;1239;71074;-74
2024/01/27 09:25:27;;;;;;;30.80;18.10;;;;;;;1.30;100.00;101198.72;109729;1237;72895;-73
2024/01/27 09:27:56;;;;;;;37.80;19.60;;;;;;;1.45;100.00;101197.83;109565;1241;62632;-74
2024/01/27 09:30:25;;;;;;;29.60;18.30;;;;;;;1.22;100.00;101199.29;109680;1238;60063;-75
2024/01/27 09:33:00;;;;;;;33.10;18.00;;;;;;;1.32;100.00;101202.28;109707;1238;73953;-72
2024/01/27 09:35:29;;;;;;;36.50;18.80;;;;;;;1.33;100.00;101201.90;109711;1240;72484;-72
2024/01/27 09:37:58;;;;;;;34.30;19.80;;;;;;;1.41;100.00;101199.14;109726;1238;71549;-76
2024/01/27 09:40:26;;;;;;;36.10;19.70;;;;;;;1.49;100.00;101200.12;109734;1241;74109;-74
2024/01/27 09:42:59;;;;;;;33.60;18.40;;;;;;;1.28;100.00;101195.69;109739;1241;61601;-73
2024/01/27 09:45:29;;;;;;;37.40;19.20;;;;;;;1.38;100.00;101195.59;109783;1238;59113;-92
2024/01/27 09:48:00;;;;;;;28.80;16.80;;;;;;;1.54;100.00;101192.95;109491;1238;74308;-74
2024/01/27 09:50:29;;;;;;;25.80;15.40;;;;;;;1.49;100.00;101198.05;109823;1239;70592;-74
2024/01/27 09:52:58;;;;;;;29.70;15.30;;;;;;;1.59;100.00;101201.20;109839;1239;67862;-74
2024/01/27 09:55:27;;;;;;;31.20;15.80;;;;;;;1.68;100.00;101199.78;109796;1239;73242;-75
2024/01/27 09:57:56;;;;;;;29.30;15.50;;;;;;;1.65;100.00;101192.30;109673;1241;62353;-76
2024/01/27 10:00:25;;;;;;;26.40;15.50;;;;;;;1.50;100.00;101193.57;109687;1238;61657;-74
2024/01/27 10:02:57;;;;;;;22.90;13.30;;;;;;;1.60;100.00;101194.67;109841;1238;74058;-69
2024/01/27 10:05:27;;;;;;;27.90;13.40;;;;;;;1.70;100.00;101199.70;109826;1238;71906;-83
2024/01/27 10:07:56;;;;;;;30.90;15.00;;;;;;;1.63;100.00;101199.21;109696;1238;67723;-84
2024/01/27 10:10:26;;;;;;;21.50;13.10;;;;;;;1.59;100.00;101200.19;109840;1238;73920;-73
2024/01/27 10:12:58;;;;;;;24.00;13.30;;;;;;;1.67;100.00;101197.91;109807;1237;61872;-71
2024/01/27 10:15:27;;;;;;;23.30;13.50;;;;;;;1.62;100.00;101200.46;109633;1242;59605;-72
2024/01/27 10:18:07;;;;;;;17.70;10.90;;;;;;;1.71;100.00;101201.07;109827;1237;73836;-72
2024/01/27 10:20:36;;;;;;;21.90;13.20;;;;;;;1.88;100.00;101205.73;109591;1237;72300;-72
2024/01/27 10:23:13;;;;;;;24.20;15.20;;;;;;;1.83;100.00;101209.63;109838;1237;70753;-71
2024/01/27 10:25:41;;;;;;;21.10;11.90;;;;;;;1.67;100.00;101211.63;109724;1237;74492;-74
2024/01/27 10:28:11;;;;;;;20.80;11.90;;;;;;;1.74;100.00;101209.22;109979;1237;61687;-71
2024/01/27 10:30:39;;;;;;;24.90;13.40;;;;;;;1.75;100.00;101206.09;109848;1237;62152;-73
2024/01/27 10:33:10;;;;;;;25.50;13.70;;;;;;;1.66;100.00;101210.98;109832;1238;74898;-70
2024/01/27 10:35:43;;;;;;;23.50;12.70;;;;;;;1.57;100.00;101213.29;109805;1238;72685;-70
2024/01/27 10:38:13;;;;;;;19.40;10.70;;;;;;;1.53;100.00;101215.44;109457;1239;70566;-73
2024/01/27 10:40:42;;;;;;;20.10;11.30;;;;;;;1.43;100.00;101214.71;109675;1237;73382;-70
2024/01/27 10:43:11;;;;;;;20.30;11.40;;;;;;;1.44;100.00;101213.48;109682;1241;61515;-71
2024/01/27 10:45:41;;;;;;;22.50;12.70;;;;;;;1.39;100.00;101217.91;109711;1238;60390;-72
2024/01/27 10:48:11;;;;;;;25.70;12.70;;;;;;;1.33;100.00;101215.13;109714;1237;72565;-71
2024/01/27 10:50:41;;;;;;;21.80;12.90;;;;;;;1.37;100.00;101217.61;109838;1238;70518;-70
2024/01/27 10:53:30;;;;;;;25.70;13.20;;;;;;;1.35;100.00;101216.09;109881;1238;68604;-71
2024/01/27 10:56:00;;;;;;;28.30;16.20;;;;;;;1.32;100.00;101217.39;109613;1238;71894;-72
2024/01/27 10:58:31;;;;;;;25.70;14.00;;;;;;;1.17;100.00;101215.88;109681;1240;59674;-71
2024/01/27 11:01:01;;;;;;;31.40;17.00;;;;;;;1.34;100.00;101217.69;109727;1237;61146;-73
2024/01/27 11:03:30;;;;;;;27.50;16.60;;;;;;;1.36;100.00;101216.77;109700;1238;75754;-72
2024/01/27 11:06:00;;;;;;;26.40;15.10;;;;;;;1.39;100.00;101217.55;109742;1238;72335;-74
2024/01/27 11:08:29;;;;;;;25.60;14.80;;;;;;;1.49;100.00;101218.80;109491;1237;70919;-70